aviador You're here:

OMAD Decoded Metar

ABU DHABI in UNITED ARAB EMIRATES
Report Time2018-01-22 01:00:00
UTC Time2018-01-22 01:55:00
Flight Rules mvfr MVFR
Wind310° at 07 kt
W.Decomp.*RWY 31: 7.0 kt HW 0.2 kt LCW
W.Rank310° ranks 5
Current wind is below 310° avg. (9.5)
Visibility5000 m
Phenomena:Widespread Dust
Clouds:N/A
Expected CloudBase > 2,400 ft AGL from Temp-Dew spread
CeilingNone
Temp18°C (ISA +3)
Dew Point12°C (68% RH)
AAT16.1°C
QNH1017 hPa
Density Alt417 ft
Elevation10 ft
Report Wrong Elevation
Raw Report
METAR OMAD 220100Z 31007KT 5000 DU NSC 18/12 Q1017 NOSIG=

Extra information for OMAD:More info

Metar Taf Metar & Taf Last 4 Metars F.Rules Stats Wind Profile Meteogram Temp Stats Airport Information Weather charts Add Link Nearby VenuesMetar ALERT Operation Metar Decoded Social comments